createdAt,value
2023-04-10T00:01:22.358Z,13.05
2023-04-10T00:03:50.888Z,12.63
2023-04-10T00:06:19.230Z,12.35
2023-04-10T00:08:47.605Z,12.45
2023-04-10T00:11:15.737Z,12.93
2023-04-10T00:13:44.178Z,12.63
2023-04-10T00:16:13.679Z,13.60
2023-04-10T00:18:42.071Z,13.63
2023-04-10T00:21:10.162Z,12.90
2023-04-10T00:23:38.595Z,12.32
2023-04-10T00:26:07.625Z,12.55
2023-04-10T00:28:38.334Z,13.95
2023-04-10T00:31:07.116Z,13.80
2023-04-10T00:33:36.563Z,13.40
2023-04-10T00:36:04.897Z,12.05
2023-04-10T00:38:33.057Z,12.40
2023-04-10T00:41:01.180Z,13.18
2023-04-10T00:43:29.290Z,12.80
2023-04-10T00:45:57.489Z,12.85
2023-04-10T00:48:25.738Z,13.45
2023-04-10T00:50:55.607Z,12.88
2023-04-10T00:53:23.777Z,13.45
2023-04-10T00:55:52.074Z,14.10
2023-04-10T00:58:20.426Z,13.63
2023-04-10T01:00:49.166Z,13.52
2023-04-10T01:03:21.153Z,12.57
2023-04-10T01:06:07.808Z,13.32
2023-04-10T01:08:47.253Z,13.25
2023-04-10T01:11:23.106Z,13.23
2023-04-10T01:13:59.947Z,12.93
2023-04-10T01:16:32.734Z,13.20
2023-04-10T01:19:11.896Z,13.52
2023-04-10T01:21:43.103Z,12.60
2023-04-10T01:24:29.625Z,13.15
2023-04-10T01:27:13.104Z,13.15
2023-04-10T01:29:47.564Z,13.48
2023-04-10T01:32:18.850Z,14.57
2023-04-10T01:34:50.674Z,12.70
2023-04-10T01:37:21.845Z,12.82
2023-04-10T01:39:55.878Z,13.60
2023-04-10T01:42:25.738Z,13.32
2023-04-10T01:44:55.818Z,13.98
2023-04-10T01:47:26.473Z,13.07
2023-04-10T01:49:55.992Z,13.75
2023-04-10T01:52:25.983Z,13.65
2023-04-10T01:54:55.158Z,14.73
2023-04-10T01:57:24.126Z,13.75
2023-04-10T01:59:53.880Z,12.70
2023-04-10T02:02:22.629Z,13.43
2023-04-10T02:04:52.027Z,13.13
2023-04-10T02:07:26.529Z,13.63
2023-04-10T02:10:01.396Z,12.60
2023-04-10T02:12:32.068Z,14.05
2023-04-10T02:15:05.487Z,11.57
2023-04-10T02:17:35.820Z,13.18
2023-04-10T02:20:06.224Z,12.55
2023-04-10T02:22:34.881Z,12.32
2023-04-10T02:25:06.880Z,11.95
2023-04-10T02:27:36.484Z,13.93
2023-04-10T02:30:07.704Z,11.65
2023-04-10T02:32:36.937Z,12.50
2023-04-10T02:35:06.182Z,12.60
2023-04-10T02:37:34.798Z,12.82
2023-04-10T02:40:03.172Z,13.05
2023-04-10T02:42:31.251Z,12.77
2023-04-10T02:44:59.680Z,13.75
2023-04-10T02:47:29.149Z,12.13
2023-04-10T02:49:57.567Z,11.82
2023-04-10T02:52:25.708Z,12.52
2023-04-10T02:54:53.844Z,11.75
2023-04-10T02:57:23.039Z,12.02
2023-04-10T02:59:52.077Z,12.35
2023-04-10T03:02:20.685Z,12.40
2023-04-10T03:04:50.282Z,12.40
2023-04-10T03:07:18.669Z,11.20
2023-04-10T03:09:46.758Z,12.48
2023-04-10T03:12:14.879Z,12.32
2023-04-10T03:14:43.355Z,11.70
2023-04-10T03:17:12.291Z,10.70
2023-04-10T03:19:40.356Z,11.10
2023-04-10T03:22:11.111Z,11.00
2023-04-10T03:24:40.024Z,9.90
2023-04-10T03:27:08.456Z,10.52
2023-04-10T03:29:36.581Z,11.23
2023-04-10T03:32:04.818Z,10.75
2023-04-10T03:34:32.973Z,11.07
2023-04-10T03:37:01.035Z,10.05
2023-04-10T03:39:30.505Z,10.63
2023-04-10T03:41:58.566Z,11.60
2023-04-10T03:44:27.623Z,11.25
2023-04-10T03:46:55.726Z,10.27
2023-04-10T03:49:24.168Z,10.60
2023-04-10T03:51:52.217Z,10.10
2023-04-10T03:54:20.793Z,10.45
2023-04-10T03:56:50.567Z,10.13
2023-04-10T03:59:18.643Z,9.10
2023-04-10T04:01:47.085Z,8.15
2023-04-10T04:04:15.517Z,9.07
2023-04-10T04:06:44.006Z,9.40
2023-04-10T04:09:13.097Z,8.55
2023-04-10T04:11:41.508Z,9.80
2023-04-10T04:14:11.201Z,10.48
2023-04-10T04:16:39.779Z,12.13
2023-04-10T04:19:08.068Z,12.02
2023-04-10T04:21:36.163Z,10.68
2023-04-10T04:24:04.328Z,11.73
2023-04-10T04:26:32.628Z,11.80
2023-04-10T04:29:00.692Z,10.82
2023-04-10T04:31:32.934Z,11.48
2023-04-10T04:34:01.071Z,10.95
2023-04-10T04:36:29.250Z,11.07
2023-04-10T04:38:57.342Z,9.82
2023-04-10T04:41:25.603Z,11.93
2023-04-10T04:43:55.869Z,11.57
2023-04-10T04:46:24.201Z,13.00
2023-04-10T04:48:54.174Z,12.13
2023-04-10T04:51:22.363Z,11.63
2023-04-10T04:53:50.900Z,12.20
2023-04-10T04:56:19.060Z,11.93
2023-04-10T04:58:47.188Z,15.07
2023-04-10T05:01:16.043Z,15.48
2023-04-10T05:03:44.228Z,15.07
2023-04-10T05:06:14.775Z,14.10
2023-04-10T05:08:43.179Z,13.50
2023-04-10T05:11:11.342Z,12.70
2023-04-10T05:13:39.753Z,14.02
2023-04-10T05:16:08.953Z,13.10
2023-04-10T05:18:37.530Z,14.50
2023-04-10T05:21:06.344Z,13.90
2023-04-10T05:23:36.232Z,15.80
2023-04-10T05:26:04.353Z,15.38
2023-04-10T05:28:32.441Z,15.63
2023-04-10T05:31:01.120Z,15.68
2023-04-10T05:33:29.274Z,16.02
2023-04-10T05:35:57.466Z,16.85
2023-04-10T05:38:25.979Z,17.00
2023-04-10T05:40:56.003Z,16.45
2023-04-10T05:43:24.423Z,16.05
2023-04-10T05:45:52.536Z,15.23
2023-04-10T05:48:20.670Z,17.33
2023-04-10T05:50:48.756Z,14.63
2023-04-10T05:53:20.392Z,14.48
2023-04-10T05:55:52.331Z,15.43
2023-04-10T05:58:21.819Z,14.23
2023-04-10T06:00:49.997Z,14.18
2023-04-10T06:03:18.451Z,13.57
2023-04-10T06:05:46.638Z,13.85
2023-04-10T06:08:14.800Z,13.18
2023-04-10T06:10:42.930Z,13.75
2023-04-10T06:13:11.482Z,13.68
2023-04-10T06:15:40.985Z,13.38
2023-04-10T06:18:09.436Z,13.43
2023-04-10T06:20:37.855Z,15.52
2023-04-10T06:23:07.108Z,14.13
2023-04-10T06:25:35.637Z,14.82
2023-04-10T06:28:03.748Z,14.20
2023-04-10T06:30:34.014Z,13.55
2023-04-10T06:33:03.531Z,14.80
2023-04-10T06:35:32.132Z,13.52
2023-04-10T06:38:00.374Z,14.55
2023-04-10T06:40:29.768Z,13.38
2023-04-10T06:42:57.898Z,13.50
2023-04-10T06:45:26.028Z,13.30
2023-04-10T06:47:54.569Z,16.10
2023-04-10T06:50:24.812Z,13.18
2023-04-10T06:52:56.259Z,12.57
2023-04-10T06:55:24.389Z,13.23
2023-04-10T06:57:52.509Z,12.73
2023-04-10T07:00:21.636Z,12.30
2023-04-10T07:02:50.263Z,12.07
2023-04-10T07:05:18.803Z,13.95
2023-04-10T07:07:50.591Z,12.20
2023-04-10T07:10:18.802Z,12.80
2023-04-10T07:12:46.951Z,13.65
2023-04-10T07:15:15.056Z,13.93
2023-04-10T07:17:43.548Z,12.50
2023-04-10T07:20:13.049Z,11.90
2023-04-10T07:22:41.198Z,12.68
2023-04-10T07:25:11.471Z,12.63
2023-04-10T07:27:39.876Z,13.30
2023-04-10T07:30:09.818Z,13.05
2023-04-10T07:32:40.079Z,11.30
2023-04-10T07:35:09.478Z,11.95
2023-04-10T07:37:39.773Z,11.73
2023-04-10T07:40:11.475Z,10.82
2023-04-10T07:42:39.902Z,10.95
2023-04-10T07:45:09.728Z,10.05
2023-04-10T07:47:38.142Z,9.98
2023-04-10T07:50:07.759Z,10.23
2023-04-10T07:52:36.524Z,9.65
2023-04-10T07:55:05.332Z,9.10
2023-04-10T07:57:35.115Z,10.40
2023-04-10T08:00:03.559Z,9.48
2023-04-10T08:02:31.861Z,8.65
2023-04-10T08:05:00.510Z,8.32
2023-04-10T08:07:28.659Z,7.22
2023-04-10T08:09:57.054Z,8.88
2023-04-10T08:12:25.266Z,8.40
2023-04-10T08:14:55.105Z,7.95
2023-04-10T08:17:23.675Z,8.80
2023-04-10T08:19:51.785Z,7.18
2023-04-10T08:22:20.150Z,7.85
2023-04-10T08:24:48.384Z,7.22
2023-04-10T08:27:17.021Z,7.20
2023-04-10T08:29:45.143Z,8.40
2023-04-10T08:32:14.701Z,7.88
2023-04-10T08:34:42.846Z,6.03
2023-04-10T08:37:12.582Z,7.97
2023-04-10T08:39:40.694Z,7.53
2023-04-10T08:42:09.196Z,7.78
2023-04-10T08:44:38.049Z,6.85
2023-04-10T08:47:07.314Z,6.53
2023-04-10T08:49:44.750Z,6.20
2023-04-10T08:52:17.785Z,6.72
2023-04-10T08:54:50.525Z,5.75
2023-04-10T08:57:20.713Z,5.28
2023-04-10T08:59:49.925Z,6.07
2023-04-10T09:02:18.385Z,5.38
2023-04-10T09:04:50.749Z,6.75
2023-04-10T09:07:19.378Z,5.82
2023-04-10T09:09:47.757Z,6.07
2023-04-10T09:12:16.236Z,7.03
2023-04-10T09:14:44.736Z,8.93
2023-04-10T09:17:18.206Z,7.53
2023-04-10T09:19:49.167Z,6.00
2023-04-10T09:22:18.019Z,7.05
2023-04-10T09:24:48.865Z,6.97
2023-04-10T09:27:33.927Z,6.47
2023-04-10T09:30:02.554Z,6.57
2023-04-10T09:32:41.851Z,7.18
2023-04-10T09:35:13.603Z,8.40
2023-04-10T09:37:42.389Z,9.27
2023-04-10T09:40:22.222Z,6.82
2023-04-10T09:42:50.534Z,7.22
2023-04-10T09:45:20.200Z,7.30
2023-04-10T09:48:03.573Z,6.38
2023-04-10T09:50:40.179Z,8.70
2023-04-10T09:53:09.178Z,7.90
2023-04-10T09:55:37.961Z,8.35
2023-04-10T09:58:06.554Z,8.05
2023-04-10T10:00:40.599Z,8.40
2023-04-10T10:03:10.530Z,6.50
2023-04-10T10:05:44.848Z,8.73
2023-04-10T10:08:14.682Z,6.72
2023-04-10T10:10:47.091Z,6.55
2023-04-10T10:13:19.375Z,8.10
2023-04-10T10:15:55.766Z,9.98
2023-04-10T10:18:31.891Z,8.95
2023-04-10T10:21:04.058Z,7.43
2023-04-10T10:23:34.442Z,7.00
2023-04-10T10:26:06.209Z,8.95
2023-04-10T10:28:35.261Z,7.65
2023-04-10T10:31:05.061Z,7.65
2023-04-10T10:33:37.048Z,8.48
2023-04-10T10:36:08.168Z,8.23
2023-04-10T10:38:41.072Z,8.27
2023-04-10T10:41:15.594Z,10.27
2023-04-10T10:43:53.464Z,10.73
2023-04-10T10:46:39.301Z,10.20
2023-04-10T10:49:07.474Z,7.35
2023-04-10T10:51:47.787Z,7.55
2023-04-10T10:54:33.124Z,7.82
2023-04-10T10:57:01.730Z,7.75
2023-04-10T10:59:58.156Z,7.25
2023-04-10T11:02:27.245Z,8.80
2023-04-10T11:04:55.932Z,8.07
2023-04-10T11:08:04.092Z,10.43
2023-04-10T11:11:05.710Z,7.35
2023-04-10T11:13:34.732Z,6.97
2023-04-10T11:16:04.467Z,6.68
2023-04-10T11:19:13.795Z,5.50
2023-04-10T11:22:03.606Z,5.47
2023-04-10T11:24:53.442Z,4.68
2023-04-10T11:27:45.160Z,4.90
2023-04-10T11:30:33.722Z,6.07
2023-04-10T11:33:03.982Z,6.75
2023-04-10T11:35:33.664Z,6.78
2023-04-10T11:38:16.858Z,5.55
2023-04-10T11:41:05.657Z,7.00
2023-04-10T11:43:35.401Z,7.55
2023-04-10T11:46:06.547Z,6.50
2023-04-10T11:48:35.288Z,6.32
2023-04-10T11:51:10.897Z,7.22
2023-04-10T11:53:39.680Z,6.40
2023-04-10T11:56:17.723Z,6.35
2023-04-10T11:58:45.919Z,7.35
2023-04-10T12:01:15.676Z,6.97
2023-04-10T12:03:45.271Z,6.57
2023-04-10T12:06:15.998Z,5.18
2023-04-10T12:08:46.524Z,4.85
2023-04-10T12:11:18.882Z,4.90
2023-04-10T12:13:47.193Z,4.90
2023-04-10T12:16:17.086Z,5.40
2023-04-10T12:18:45.889Z,4.18
2023-04-10T12:21:14.152Z,4.47
2023-04-10T12:23:43.582Z,4.43
2023-04-10T12:26:17.694Z,4.45
2023-04-10T12:28:53.658Z,4.22
2023-04-10T12:31:29.377Z,4.65
2023-04-10T12:33:58.858Z,3.90
2023-04-10T12:36:30.486Z,4.40
2023-04-10T12:38:59.651Z,4.10
2023-04-10T12:41:31.699Z,2.03
2023-04-10T12:44:10.414Z,3.70
2023-04-10T12:46:39.459Z,4.30
2023-04-10T12:49:12.078Z,3.67
2023-04-10T12:51:47.430Z,4.32
2023-04-10T12:54:37.518Z,4.78
2023-04-10T12:57:07.656Z,4.75
2023-04-10T12:59:35.986Z,2.88
2023-04-10T13:02:04.184Z,3.55
2023-04-10T13:04:33.272Z,3.40
2023-04-10T13:07:01.732Z,4.50
2023-04-10T13:09:30.135Z,3.78
2023-04-10T13:11:58.488Z,4.03
2023-04-10T13:14:28.300Z,4.13
2023-04-10T13:16:56.795Z,3.78
2023-04-10T13:19:24.951Z,3.92
2023-04-10T13:21:53.050Z,4.10
2023-04-10T13:24:21.119Z,3.35
2023-04-10T13:26:49.271Z,3.97
2023-04-10T13:29:17.334Z,3.95
2023-04-10T13:31:47.107Z,4.90
2023-04-10T13:34:15.421Z,2.95
2023-04-10T13:36:43.589Z,4.25
2023-04-10T13:39:12.098Z,4.15
2023-04-10T13:41:40.225Z,3.58
2023-04-10T13:44:08.387Z,4.03
2023-04-10T13:46:36.572Z,3.45
2023-04-10T13:49:06.163Z,4.13
2023-04-10T13:51:34.285Z,5.10
2023-04-10T13:54:05.025Z,3.70
2023-04-10T13:56:33.379Z,4.38
2023-04-10T13:59:01.451Z,4.22
2023-04-10T14:01:30.101Z,3.83
2023-04-10T14:03:58.543Z,3.65
2023-04-10T14:06:28.336Z,3.65
2023-04-10T14:08:56.761Z,2.75
2023-04-10T14:11:24.920Z,3.40
2023-04-10T14:13:53.455Z,3.60
2023-04-10T14:16:21.566Z,4.38
2023-04-10T14:18:49.767Z,3.90
2023-04-10T14:21:19.425Z,3.97
2023-04-10T14:23:50.206Z,3.00
2023-04-10T14:26:18.325Z,4.05
2023-04-10T14:28:46.674Z,4.10
2023-04-10T14:31:14.768Z,4.10
2023-04-10T14:33:42.917Z,3.40
2023-04-10T14:36:11.621Z,3.53
2023-04-10T14:38:40.190Z,4.28
2023-04-10T14:41:09.838Z,4.18
2023-04-10T14:43:38.655Z,3.13
2023-04-10T14:46:07.354Z,3.25
2023-04-10T14:48:35.621Z,3.45
2023-04-10T14:51:05.757Z,2.53
2023-04-10T14:53:33.890Z,3.35
2023-04-10T14:56:02.024Z,3.03
2023-04-10T14:58:31.556Z,3.28
2023-04-10T15:00:59.710Z,3.85
2023-04-10T15:03:27.904Z,3.60
2023-04-10T15:06:00.829Z,4.40
2023-04-10T15:08:28.938Z,4.13
2023-04-10T15:10:57.432Z,3.88
2023-04-10T15:13:25.980Z,3.22
2023-04-10T15:15:56.322Z,3.88
2023-04-10T15:18:25.596Z,3.65
2023-04-10T15:20:55.301Z,3.60
2023-04-10T15:23:23.533Z,3.30
2023-04-10T15:25:51.975Z,4.20
2023-04-10T15:28:20.100Z,3.85
2023-04-10T15:30:49.706Z,4.65
2023-04-10T15:33:19.389Z,3.45
2023-04-10T15:35:49.728Z,3.90
2023-04-10T15:38:17.860Z,5.30
2023-04-10T15:40:46.010Z,4.70
2023-04-10T15:43:14.154Z,4.47
2023-04-10T15:45:42.282Z,4.57
2023-04-10T15:48:10.454Z,4.80
2023-04-10T15:50:40.448Z,4.38
2023-04-10T15:53:08.984Z,4.32
2023-04-10T15:55:40.566Z,4.43
2023-04-10T15:58:08.960Z,3.70
2023-04-10T16:00:37.154Z,3.95
2023-04-10T16:03:05.841Z,5.38
2023-04-10T16:05:34.457Z,5.18
2023-04-10T16:08:05.096Z,4.25
2023-04-10T16:10:33.216Z,5.60
2023-04-10T16:13:04.575Z,4.20
2023-04-10T16:15:35.381Z,4.40
2023-04-10T16:18:04.513Z,4.55
2023-04-10T16:20:33.291Z,5.43
2023-04-10T16:23:01.732Z,3.70
2023-04-10T16:25:31.572Z,4.40
2023-04-10T16:27:59.669Z,4.85
2023-04-10T16:30:27.820Z,4.57
2023-04-10T16:32:56.634Z,4.35
2023-04-10T16:35:24.749Z,4.57
2023-04-10T16:37:53.294Z,4.45
2023-04-10T16:40:21.518Z,4.90
2023-04-10T16:42:51.251Z,4.80
2023-04-10T16:45:19.500Z,4.25
2023-04-10T16:47:47.895Z,4.47
2023-04-10T16:50:16.152Z,4.35
2023-04-10T16:52:44.215Z,4.45
2023-04-10T16:55:12.817Z,4.57
2023-04-10T16:57:40.905Z,4.80
2023-04-10T17:00:11.996Z,4.78
2023-04-10T17:02:40.634Z,4.25
2023-04-10T17:05:08.875Z,4.10
2023-04-10T17:07:37.017Z,4.55
2023-04-10T17:10:06.360Z,4.32
2023-04-10T17:12:34.585Z,4.47
2023-04-10T17:15:02.891Z,4.07
2023-04-10T17:17:34.453Z,3.63
2023-04-10T17:20:02.826Z,4.13
2023-04-10T17:22:31.208Z,3.63
2023-04-10T17:24:59.373Z,3.50
2023-04-10T17:27:27.899Z,4.57
2023-04-10T17:29:56.258Z,4.45
2023-04-10T17:32:24.425Z,4.50
2023-04-10T17:34:53.916Z,4.25
2023-04-10T17:37:22.830Z,4.25
2023-04-10T17:39:52.313Z,3.97
2023-04-10T17:42:20.385Z,3.55
2023-04-10T17:44:48.764Z,8.77
2023-04-10T17:47:17.478Z,21.27
2023-04-10T17:49:46.022Z,25.98
2023-04-10T17:52:15.524Z,25.42
2023-04-10T17:54:43.657Z,21.30
2023-04-10T17:57:11.809Z,15.18
2023-04-10T17:59:39.930Z,24.85
2023-04-10T18:02:08.379Z,5.50
2023-04-10T18:04:36.570Z,4.40
2023-04-10T18:07:04.727Z,4.55
2023-04-10T18:09:34.214Z,4.22
2023-04-10T18:12:02.553Z,4.72
2023-04-10T18:14:30.764Z,4.90
2023-04-10T18:16:58.955Z,5.00
2023-04-10T18:19:27.077Z,4.15
2023-04-10T18:21:55.434Z,4.32
2023-04-10T18:24:23.560Z,4.28
2023-04-10T18:26:52.988Z,3.92
2023-04-10T18:29:21.096Z,4.68
2023-04-10T18:31:49.516Z,4.15
2023-04-10T18:34:17.629Z,4.22
2023-04-10T18:36:46.651Z,4.32
2023-04-10T18:39:15.016Z,4.07
2023-04-10T18:41:43.306Z,4.07
2023-04-10T18:44:12.821Z,4.00
2023-04-10T18:46:46.351Z,4.28
2023-04-10T18:49:16.922Z,4.32
2023-04-10T18:51:45.041Z,4.68
2023-04-10T18:54:13.334Z,3.90
2023-04-10T18:56:41.431Z,2.95
2023-04-10T18:59:09.534Z,3.40
2023-04-10T19:01:40.055Z,2.78
2023-04-10T19:04:08.334Z,3.20
2023-04-10T19:06:38.668Z,3.85
2023-04-10T19:09:06.904Z,3.38
2023-04-10T19:11:35.342Z,3.30
2023-04-10T19:14:03.441Z,3.10
2023-04-10T19:19:06.059Z,3.20
2023-04-10T19:21:34.487Z,3.40
2023-04-10T19:24:02.718Z,2.67
2023-04-10T19:26:30.853Z,3.13
2023-04-10T19:28:59.874Z,3.20
2023-04-10T19:31:29.904Z,2.92
2023-04-10T19:33:58.076Z,3.08
2023-04-10T19:36:28.155Z,2.95
2023-04-10T19:38:57.865Z,7.53
2023-04-10T19:41:26.465Z,3.40
2023-04-10T19:43:55.122Z,2.50
2023-04-10T19:46:23.694Z,2.85
2023-04-10T19:48:54.933Z,3.17
2023-04-10T19:51:23.069Z,2.90
2023-04-10T19:53:55.867Z,3.05
2023-04-10T19:56:24.276Z,3.05
2023-04-10T19:58:52.438Z,3.08
2023-04-10T20:01:20.751Z,2.85
2023-04-10T20:03:49.044Z,3.70
2023-04-10T20:06:17.769Z,3.25
2023-04-10T20:08:46.106Z,3.70
2023-04-10T20:11:15.530Z,3.45
2023-04-10T20:13:44.046Z,3.65
2023-04-10T20:16:12.316Z,4.07
2023-04-10T20:18:41.554Z,5.32
2023-04-10T20:21:09.771Z,3.60
2023-04-10T20:23:38.485Z,6.00
2023-04-10T20:26:07.047Z,3.95
2023-04-10T20:28:36.552Z,3.53
2023-04-10T20:31:05.056Z,3.60
2023-04-10T20:33:33.257Z,3.15
2023-04-10T20:36:01.367Z,3.20
2023-04-10T20:38:30.013Z,3.17
2023-04-10T20:40:58.081Z,3.42
2023-04-10T20:43:27.006Z,2.38
2023-04-10T20:45:56.487Z,3.10
2023-04-10T20:48:24.710Z,3.38
2023-04-10T20:50:53.003Z,3.75
2023-04-10T20:53:21.623Z,3.22
2023-04-10T20:55:54.054Z,3.28
2023-04-10T20:58:22.772Z,2.80
2023-04-10T21:00:52.582Z,3.10
2023-04-10T21:03:22.840Z,3.65
2023-04-10T21:05:53.452Z,3.10
2023-04-10T21:08:22.083Z,3.58
2023-04-10T21:10:51.526Z,3.40
2023-04-10T21:13:19.619Z,4.15
2023-04-10T21:15:49.715Z,3.38
2023-04-10T21:18:17.836Z,3.00
2023-04-10T21:20:47.470Z,3.20
2023-04-10T21:23:15.703Z,3.35
2023-04-10T21:25:51.017Z,3.00
2023-04-10T21:28:19.295Z,3.60
2023-04-10T21:30:47.440Z,2.70
2023-04-10T21:33:16.072Z,2.50
2023-04-10T21:35:44.914Z,3.00
2023-04-10T21:38:14.975Z,3.13
2023-04-10T21:40:43.087Z,3.38
2023-04-10T21:43:11.536Z,3.08
2023-04-10T21:45:40.294Z,3.60
2023-04-10T21:48:08.437Z,3.10
2023-04-10T21:50:36.586Z,2.58
2023-04-10T21:53:04.824Z,2.65
2023-04-10T21:55:34.647Z,2.65
2023-04-10T21:58:02.709Z,2.95
2023-04-10T22:00:31.074Z,3.38
2023-04-10T22:02:59.481Z,3.00
2023-04-10T22:05:27.938Z,3.10
2023-04-10T22:07:56.546Z,3.55
2023-04-10T22:10:24.671Z,3.35
2023-04-10T22:12:54.144Z,3.00
2023-04-10T22:15:22.286Z,3.45
2023-04-10T22:17:50.772Z,3.80
2023-04-10T22:20:18.993Z,2.80
2023-04-10T22:22:47.941Z,3.10
2023-04-10T22:25:16.060Z,3.05
2023-04-10T22:27:44.550Z,3.13
2023-04-10T22:30:14.945Z,3.13
2023-04-10T22:32:43.112Z,2.85
2023-04-10T22:35:11.299Z,2.95
2023-04-10T22:37:39.674Z,2.92
2023-04-10T22:40:09.006Z,3.08
2023-04-10T22:42:37.185Z,2.85
2023-04-10T22:45:05.964Z,2.60
2023-04-10T22:47:35.802Z,3.00
2023-04-10T22:50:04.456Z,2.80
2023-04-10T22:52:32.825Z,2.88
2023-04-10T22:55:00.959Z,2.17
2023-04-10T22:57:29.042Z,2.70
2023-04-10T22:59:59.347Z,2.03
2023-04-10T23:02:29.035Z,2.42
2023-04-10T23:04:58.857Z,2.35
2023-04-10T23:07:27.916Z,2.70
2023-04-10T23:09:56.132Z,2.60
2023-04-10T23:12:24.527Z,2.78
2023-04-10T23:14:52.589Z,2.22
2023-04-10T23:17:21.833Z,2.58
2023-04-10T23:19:49.935Z,2.97
2023-04-10T23:22:19.671Z,2.97
2023-04-10T23:24:47.903Z,2.70
2023-04-10T23:27:16.364Z,3.08
2023-04-10T23:29:44.436Z,3.00
2023-04-10T23:32:12.976Z,3.00
2023-04-10T23:34:41.069Z,2.78
2023-04-10T23:37:09.913Z,2.97
2023-04-10T23:39:39.643Z,2.55
2023-04-10T23:42:07.756Z,2.65
2023-04-10T23:44:35.878Z,3.00
2023-04-10T23:47:04.018Z,3.08
2023-04-10T23:49:32.702Z,2.95
2023-04-10T23:52:01.061Z,3.30
2023-04-10T23:54:30.635Z,2.85
2023-04-10T23:57:00.673Z,2.70
2023-04-10T23:59:29.019Z,2.63
